Home > Products > Valid Products > TAF

000
FTUS43 KFSD 182300
TAFHON
TAF
KHON 182333Z 1900/1924 16020G30KT P6SM OVC200
     FM190700 18012G18KT P6SM BKN120
     FM191200 33008KT P6SM BKN120
     FM192000 27008KT P6SM BKN200=



000
FTUS43 KFSD 182300
TAFFSD
TAF
KFSD 182333Z 1900/1924 16020G30KT P6SM OVC200
     FM191000 18016G22KT P6SM BKN150
     FM191700 32010KT P6SM SCT040 BKN120
     FM191900 36005KT P6SM OVC100=



000
FTUS43 KFSD 182300
TAFSUX
TAF
KSUX 182333Z 1900/1924 16016G23KT P6SM BKN200
     FM191100 17012G18KT P6SM BKN200
     FM191800 20013KT P6SM OVC060=



000
FTUS43 KFSD 181700
TAFHON
TAF
KHON 181729Z 1818/1918 16024G33KT P6SM FEW200
     FM190100 16019G26KT P6SM SCT200
     FM190700 18017G25KT P6SM BKN120
     FM191300 33012G18KT P6SM SCT060 BKN120=



000
FTUS43 KFSD 181700
TAFFSD
TAF
KFSD 181729Z 1818/1918 16019G26KT P6SM FEW200
     FM182100 16022G32KT P6SM FEW050
     FM190130 17019G26KT P6SM FEW050
     FM191000 18016G22KT P6SM BKN150
     FM191700 23010KT P6SM SCT040 BKN120=



000
FTUS43 KFSD 181700
TAFSUX
TAF
KSUX 181729Z 1818/1918 17019G27KT P6SM FEW200
     FM190200 16016G22KT P6SM FEW050
     FM191300 18017G25KT P6SM SCT040 BKN200=



000
FTUS43 KFSD 181100
TAFSUX
TAF
KSUX 181132Z 1812/1912 13010KT P6SM BKN100
     FM181500 15013G19KT P6SM SCT110
     FM181900 16018G25KT P6SM FEW150
     FM190200 16016G22KT P6SM FEW050=



000
FTUS43 KFSD 181100
TAFFSD
TAF
KFSD 181132Z 1812/1912 13013KT P6SM BKN110
     FM181500 15015G21KT P6SM SCT120
     FM181800 16019G26KT P6SM FEW150
     FM182100 16022G32KT P6SM FEW050
     FM190130 17019G26KT P6SM FEW050
     FM191000 18016G22KT P6SM BKN150=



000
FTUS43 KFSD 181100
TAFHON
TAF
KHON 181132Z 1812/1912 13015G22KT P6SM BKN100
     FM181500 15020G28KT P6SM SCT150
     FM181800 16024G33KT P6SM FEW200
     FM190100 16019G26KT P6SM SCT200
     FM190700 18017G25KT P6SM BKN120=



000
FTUS43 KFSD 180500
TAFHON
TAF
KHON 180522Z 1806/1906 12013KT P6SM SCT100 BKN200
     FM181100 13015G23KT P6SM SCT070 BKN150
     FM181500 15020G28KT P6SM BKN150
     FM181800 17024G33KT P6SM SCT250
     FM190100 16015G23KT P6SM BKN200=



000
FTUS43 KFSD 180500
TAFSUX
TAF
KSUX 180522Z 1806/1906 10006KT P6SM SCT110
     FM180900 13010KT P6SM SCT120
     FM181500 16013G19KT P6SM BKN100
     FM181800 16022G28KT P6SM SCT250
     FM190100 15014KT P6SM SCT250=



000
FTUS43 KFSD 180500
TAFFSD
TAF
KFSD 180522Z 1806/1906 11012KT P6SM SCT080 BKN120
     FM181000 11013KT P6SM OVC090
     FM181500 15016G23KT P6SM BKN080
     FM181800 17023G32KT P6SM SCT200
     FM190100 17015G24KT P6SM SCT250=



000
FTUS43 KFSD 172300
TAFSUX
TAF
KSUX 172331Z 1800/1824 10006KT P6SM BKN110
     FM180900 13010KT P6SM BKN120
     FM181500 16013G19KT P6SM BKN100
     FM181800 16022G29KT P6SM SCT250=



000
FTUS43 KFSD 172300
TAFFSD
TAF
KFSD 172331Z 1800/1824 10005KT P6SM BKN100
     FM180600 11010KT P6SM BKN150
     FM181000 11013KT P6SM OVC090
     FM181500 15016G23KT P6SM BKN080
     FM181800 16023G32KT P6SM SCT200=



000
FTUS43 KFSD 172300
TAFHON
TAF
KHON 172331Z 1800/1824 14009KT P6SM SCT045 BKN090
     FM180200 12013KT P6SM SCT080
     FM180800 13015G23KT P6SM OVC070
     FM181500 15020G28KT P6SM BKN150
     FM181800 17024G33KT P6SM SCT250=



000
FTUS43 KFSD 171700
TAFFSD
TAF
KFSD 171734Z 1718/1818 04006KT P6SM FEW110
     FM172300 08005KT P6SM BKN100
     FM180300 11010KT P6SM BKN090
     FM181000 12013KT P6SM OVC070
     FM181600 14017G27KT P6SM BKN080=



000
FTUS43 KFSD 171700
TAFHON
TAF
KHON 171734Z 1718/1818 08007KT P6SM SCT100
     FM172100 13009KT P6SM BKN090
     FM180200 11013KT P6SM OVC080
     FM180800 14016G24KT P6SM OVC070
     FM181600 15024G32KT P6SM BKN140=



000
FTUS43 KFSD 171700
TAFSUX
TAF
KSUX 171734Z 1718/1818 03008KT P6SM FEW200
     FM172100 08004KT P6SM FEW120
     FM180200 10006KT P6SM BKN100
     FM180900 13010KT P6SM OVC090
     FM181600 15017G27KT P6SM BKN080=



000
FTUS43 KFSD 171100
TAFSUX
TAF
KSUX 171120Z 1712/1812 34012KT P6SM OVC017
     FM171340 35013KT P6SM SCT018 SCT200
     FM171800 35008KT P6SM FEW200
     FM172100 08004KT P6SM FEW120
     FM180200 10006KT P6SM BKN100
     FM180900 13010KT P6SM OVC090=



000
FTUS43 KFSD 171100
TAFHON
TAF
KHON 171120Z 1712/1812 35005KT P6SM SCT250
     FM171600 10007KT P6SM SCT100
     FM171900 13009KT P6SM BKN090
     FM180200 11013KT P6SM OVC080
     FM180800 14016G24KT P6SM OVC070=



000
FTUS43 KFSD 171100
TAFFSD
TAF
KFSD 171120Z 1712/1812 33005KT P6SM SCT180
     FM171330 35010KT P6SM SCT150
     FM171800 01006KT P6SM FEW110
     FM172300 08005KT P6SM BKN100
     FM180300 11010KT P6SM BKN090
     FM181000 14013KT P6SM OVC070=



000
FTUS43 KFSD 170900 AAA
TAFFSD
TAF AMD
KFSD 170916Z 1709/1806 35011KT P6SM OVC015
     FM171000 35010KT P6SM FEW015 SCT200
     FM171300 35012KT P6SM SCT200
     FM171700 36008KT P6SM SKC
     FM172100 10005KT P6SM SCT150
     FM180300 11010KT P6SM BKN100=



000
FTUS43 KFSD 170500
TAFSUX
TAF
KSUX 170523Z 1706/1806 34016G25KT P6SM OVC015
     FM171300 35013KT P6SM SCT015 SCT200
     FM171800 35008KT P6SM SKC
     FM172100 VRB04KT P6SM SKC
     FM180200 10006KT P6SM BKN120=



000
FTUS43 KFSD 170500
TAFHON
TAF
KHON 170523Z 1706/1806 36007KT P6SM SCT200
     FM171200 02006KT P6SM SCT250
     FM171800 10007KT P6SM SCT200
     FM172100 15008KT P6SM BKN120
     FM180200 11014KT P6SM OVC080=



000
FTUS43 KFSD 170500
TAFFSD
TAF
KFSD 170523Z 1706/1806 36014G20KT P6SM OVC015
     FM170800 35013KT P6SM BKN022
     FM171000 35012KT P6SM SCT025 BKN200
     FM171700 36008KT P6SM SKC
     FM172100 10005KT P6SM SCT150
     FM180300 11010KT P6SM BKN100=



000
FTUS43 KFSD 170300 AAA
TAFHON
TAF AMD
KHON 170334Z 1704/1724 01012KT P6SM OVC025
     FM170400 36011KT P6SM SCT025 SCT200
     FM171200 02006KT P6SM SCT250
     FM171800 12007KT P6SM SCT200=



000
FTUS43 KFSD 170100 AAA
TAFFSD
TAF AMD
KFSD 170123Z 1701/1724 36019G26KT P6SM OVC012
     FM170300 35014G20KT P6SM OVC015
     FM170900 34013KT P6SM BKN012
     FM171200 34012KT P6SM SCT014 BKN200
     FM171800 36008KT P6SM SKC=



000
FTUS43 KFSD 162300
TAFHON
TAF
KHON 162322Z 1700/1724 01012G17KT P6SM OVC020
     FM170700 36008KT P6SM SCT025 BKN200
     FM171200 02006KT P6SM SCT250
     FM171800 12007KT P6SM SCT200=



000
FTUS43 KFSD 162300
TAFSUX
TAF
KSUX 162322Z 1700/1724 33021G31KT P6SM OVC015
     FM170500 34016G22KT P6SM OVC015
     FM171400 35013KT P6SM SCT015 SCT200
     FM171800 35008KT P6SM SKC=



000
FTUS43 KFSD 162300
TAFFSD
TAF
KFSD 162322Z 1700/1724 35019G26KT P6SM BKN015
      TEMPO 1700/1703 SCT015 OVC030
     FM170300 35014G20KT P6SM OVC015
     FM170900 34013KT P6SM BKN012
     FM171200 34012KT P6SM SCT014 BKN200
     FM171800 36008KT P6SM SKC=



000
FTUS43 KFSD 162100 AAA
TAFSUX
TAF AMD
KSUX 162140Z 1622/1718 31021G34KT P6SM SCT018 OVC060
     FM170000 33021G33KT P6SM SCT015 OVC030
     FM170500 34016G22KT P6SM OVC015
     FM170900 33013KT P6SM SCT015 BKN100=



000
FTUS43 KFSD 162100 AAB
TAFFSD
TAF AMD
KFSD 162138Z 1622/1718 01021G28KT 1/2SM SN FG BKN008
      TEMPO 1622/1623 1 1/2SM -SN BR SCT008 OVC012
     FM162300 01021G28KT P6SM OVC014
     FM170300 35014G20KT P6SM OVC025
     FM170900 34009KT P6SM BKN012
     FM171400 35013KT P6SM SCT017=



000
FTUS43 KFSD 162000 AAA
TAFFSD
TAF AMD
KFSD 162008Z 1620/1718 34021G32KT 3SM -SN SCT008 OVC025
      TEMPO 1620/1622 1SM -SN BKN008
     FM162200 35021G28KT P6SM OVC020
     FM170300 35014G20KT P6SM OVC025
     FM170900 34009KT P6SM BKN012
     FM171400 35013KT P6SM SCT017=



000
FTUS43 KFSD 161900 AAA
TAFFSD
TAF AMD
KFSD 161909Z 1619/1718 34021G32KT 3SM -SN BKN015 OVC025
      TEMPO 1619/1622 1SM -SN
     FM162200 35021G28KT P6SM OVC020
     FM170300 35014G20KT P6SM OVC025
     FM170900 34009KT P6SM BKN012
     FM171400 35013KT P6SM SCT017=



000
FTUS43 KFSD 161700 RRA
TAFFSD
TAF
KFSD 161749Z 1618/1718 29012G17KT P6SM OVC050
     FM161900 34021G32KT 6SM -RA BKN015 OVC025
      TEMPO 1619/1622 3SM -RASN
     FM162200 35021G28KT P6SM OVC020
     FM170300 35014G20KT P6SM OVC025
     FM170900 34009KT P6SM BKN012
     FM171400 35013KT P6SM SCT017=



000
FTUS43 KFSD 161700 RRA
TAFSUX
TAF
KSUX 161749Z 1618/1718 20017G23KT P6SM SCT020 OVC040
     FM162300 30021G34KT P6SM OVC025
     FM170500 34016G22KT P6SM OVC015
     FM170900 33013KT P6SM SCT015 BKN100=



000
FTUS43 KFSD 161700 RRA
TAFHON
TAF
KHON 161749Z 1618/1718 02017G24KT 1SM -SN OVC015
      TEMPO 1618/1620 3SM -SN
     FM162000 36021G30KT P6SM OVC025
     FM170130 35014KT P6SM OVC020
     FM170900 33008KT P6SM SCT025 BKN150
     FM171600 01009KT P6SM SCT100=



000
FTUS43 KFSD 161500 AAB
TAFHON
TAF AMD
KHON 161536Z 1616/1712 02017G24KT 1/2SM SN OVC005
      TEMPO 1618/1620 3SM -SN OVC015
     FM162000 36021G30KT P6SM OVC025
     FM170130 35014KT P6SM OVC025
     FM170500 33008KT P6SM SCT025 BKN150=



000
FTUS43 KFSD 161400 AAA
TAFFSD
TAF AMD
KFSD 161413Z 1614/1712 17015G22KT P6SM SCT030 OVC060
      TEMPO 1614/1617 -SHRA
     FM161700 29012G17KT P6SM -SHRA BKN030 OVC050
     FM162000 34021G32KT 5SM -RA OVC025
     FM162130 35023G31KT 3SM -SN BR OVC015
     FM162330 35021G28KT P6SM OVC020
     FM170300 35014G20KT P6SM OVC025
     FM170900 34009KT P6SM BKN012=



000
FTUS43 KFSD 161300 AAA
TAFHON
TAF AMD
KHON 161359Z 1614/1712 02017G24KT 2SM -SN OVC015
      TEMPO 1614/1616 1/2SM SN
     FM161900 36021G30KT P6SM OVC025
     FM170130 35014KT P6SM OVC025
     FM170500 33008KT P6SM SCT025 BKN150=



000
FTUS43 KFSD 161100
TAFHON
TAF
KHON 161136Z 1612/1712 05017G24KT P6SM -SHRA SCT040 OVC070
     FM161500 02017G24KT 3SM -SN OVC015
      TEMPO 1615/1616 6SM -RASN
     FM161900 36021G30KT P6SM OVC025
     FM170130 35014KT P6SM OVC025
     FM170500 33008KT P6SM SCT025 BKN150=



000
FTUS43 KFSD 161100
TAFSUX
TAF
KSUX 161136Z 1612/1712 16014G23KT P6SM SCT110 OVC150 WS015/20045KT
     FM161400 19017G28KT P6SM BKN120
     FM161600 23014G19KT P6SM SCT060 OVC100
     FM161900 27017G23KT P6SM SCT020 OVC040
     FM162100 30021G34KT P6SM -SHRA OVC025
     FM170000 33020G28KT P6SM BKN025
     FM170500 34016G22KT P6SM OVC015
     FM170900 33013KT P6SM SCT015 BKN100=



000
FTUS43 KFSD 161100
TAFFSD
TAF
KFSD 161136Z 1612/1712 16015G22KT P6SM BKN100 WS017/19040KT
     FM161400 17010KT P6SM SCT060 OVC080
      TEMPO 1614/1616 -SHRA
     FM161700 29012G17KT P6SM -SHRA BKN030 OVC050
     FM162000 34021G32KT 5SM -RA OVC025
     FM162130 35023G31KT 3SM -SN BR OVC015
     FM162330 35021G28KT P6SM OVC020
     FM170300 35014G20KT P6SM OVC025
     FM170900 34009KT P6SM BKN012=



000
FTUS43 KFSD 160500
TAFHON
TAF
KHON 160520Z 1606/1706 11017G25KT P6SM OVC100
     FM161000 08012KT P6SM SCT040 OVC070
     FM161300 04012KT P6SM SCT015 OVC040
     FM161500 01017G24KT 3SM -SN OVC015
      TEMPO 1615/1616 6SM -RASN
     FM161900 35021G30KT P6SM BKN025
     FM170130 36014KT P6SM SCT025=



000
FTUS43 KFSD 160500
TAFFSD
TAF
KFSD 160520Z 1606/1706 12015G23KT P6SM BKN150
     FM160900 14014G22KT P6SM BKN100 WS013/19040KT
     FM161300 16013KT P6SM SCT060 OVC090
     FM161700 29012G17KT P6SM -SHRA BKN030 OVC050
     FM162000 34021G32KT 4SM -SN OVC015
     FM162300 35021G28KT P6SM BKN020
     FM170300 35014G20KT P6SM SCT025=



000
FTUS43 KFSD 160500
TAFSUX
TAF
KSUX 160520Z 1606/1706 14015KT P6SM BKN150
     FM160700 15014KT P6SM BKN150 WS012/19045KT
     FM161300 18017G24KT P6SM BKN120
     FM161600 23014G19KT P6SM SCT060 OVC100
     FM161900 27017G23KT P6SM SCT020 OVC040
     FM162100 30021G34KT P6SM -SHRA OVC025
     FM170000 33020G28KT P6SM BKN025
     FM170400 33016G22KT P6SM SCT025=



    US Dept of Commerce
    National Oceanic and Atmospheric Administration
    National Weather Service
    1325 East West Highway
    Silver Spring, MD 20910
    Page Author: NWS Internet Services Team
Disclaimer
Information Quality
Credits
Glossary
Privacy Policy
Freedom of Information Act (FOIA)
About Us
Career Opportunities